Alexandria, MN (56308)

1:03 PM CDT on September 02, 2014 (GMT -0500)
Chandler | Change Station
CLOSE
Current Station
Airport
Location: Alexandria,
Elevation: 1424 ft
Nearby Weather Stations

Elev 1424 ft 45.87 °N, 95.39 °W | Updated 10 minutes ago

Clear
Clear
73 °F
Feels Like 73 °F
N
12
Wind Variable Wind from SW

Today
High -- | Low -- °F
--% Chance of Precip.
Yesterday
High -- | Low -- °F
Precip. -- in
6:43 AM 7:57 PM
First Quarter, 53% visible
Pressure 29.89 in
Visibility 10.0 miles
Clouds Clear
Dew Point 53 °F
Humidity 49%
Rainfall 0.00 in
Snow Depth Not available.
UV 8 out of 12
Pollen 8.10 out of 12
Air Quality Not available.
Flu Activity Not available.
METAR KAXN 021753Z AUTO 23010KT 10SM CLR 23/12 A2989 RMK AO2 SLP120 T02280117 10228 20117 58002

More Conditions Fewer Conditions

Pressure 29.89 in
Visibility 10.0 miles
Clouds Clear
Dew Point 53 °F
Humidity 49%
Rainfall 0.00 in
Snow Depth Not available.
UV 8 out of 12
Pollen 8.10 out of 12
Air Quality Not available.
Flu Activity Not available.
METAR KAXN 021753Z AUTO 23010KT 10SM CLR 23/12 A2989 RMK AO2 SLP120 T02280117 10228 20117 58002

More Conditions Fewer Conditions

10-Day Weather Forecast

Almanac

Astronomy

Sep. 02, 2014 Rise Set
Actual Time 6:43 AM CDT 7:57 PM CDT
Civil Twilight 6:12 AM CDT 8:28 PM CDT
Nautical Twilight 5:35 AM CDT 9:05 PM CDT
Astronomical Twilight 4:56 AM CDT 9:44 PM CDT
Moon 2:51 PM CDT No Moon Set
Length of Visible Light 14h 15m
Length of Day
13h 14m
Tomorrow will be 3m 8s shorter.
First Quarter, 53% of the Moon is Illuminated
Today
First Quarter
Sep 8
Full
Sep 15
Last Quarter
Sep 24
New
Oct 1
First Quarter

Today's Extremes

State Highs State Lows

Community

WunderPhotos

Upload Photos

1,749,724 photos uploaded!

WunderBlogs® & News

Nearby

Snow Depth

Station Depth Elevation
No new snow has been reported.

Earthquake Activity

City Distance Mag. Time & Date
No recent earthquake activity has been reported nearby.
Minimum magnitude displayed is 2.5.

Coastal Water Temperatures

Place Temperature
No Stations Reporting

Nearby Weather Stations